createdAt,value
2023-02-22T00:04:10.481Z,84.39
2023-02-22T00:09:20.870Z,84.03
2023-02-22T00:14:28.948Z,83.86
2023-02-22T00:19:35.501Z,83.66
2023-02-22T00:24:41.871Z,83.61
2023-02-22T00:29:50.193Z,83.90
2023-02-22T00:34:56.637Z,83.39
2023-02-22T00:40:08.869Z,83.71
2023-02-22T00:45:20.605Z,83.80
2023-02-22T00:50:29.468Z,82.51
2023-02-22T00:55:40.289Z,82.96
2023-02-22T01:00:48.992Z,82.39
2023-02-22T01:05:55.227Z,82.61
2023-02-22T01:11:01.819Z,83.57
2023-02-22T01:16:10.104Z,83.75
2023-02-22T01:21:16.967Z,83.71
2023-02-22T01:26:23.474Z,84.05
2023-02-22T01:31:31.119Z,84.04
2023-02-22T01:36:38.032Z,83.66
2023-02-22T01:41:44.681Z,83.78
2023-02-22T01:46:52.878Z,83.61
2023-02-22T01:52:03.448Z,83.00
2023-02-22T01:57:17.494Z,83.46
2023-02-22T02:02:25.699Z,83.29
2023-02-22T02:07:33.620Z,83.75
2023-02-22T02:12:40.247Z,84.54
2023-02-22T02:17:49.661Z,84.87
2023-02-22T02:23:10.244Z,84.97
2023-02-22T02:29:10.710Z,84.75
2023-02-22T02:34:25.710Z,84.84
2023-02-22T02:39:37.473Z,84.83
2023-02-22T02:44:48.671Z,85.02
2023-02-22T02:50:01.968Z,84.98
2023-02-22T02:55:12.202Z,85.25
2023-02-22T03:00:26.280Z,85.35
2023-02-22T03:06:06.120Z,84.97
2023-02-22T03:11:17.002Z,85.14
2023-02-22T03:16:35.711Z,85.46
2023-02-22T03:21:51.461Z,85.62
2023-02-22T03:27:05.258Z,85.49
2023-02-22T03:32:17.614Z,85.82
2023-02-22T03:37:29.389Z,85.98
2023-02-22T03:42:39.247Z,86.46
2023-02-22T03:47:51.906Z,87.25
2023-02-22T03:53:00.647Z,88.17
2023-02-22T03:58:14.137Z,88.65
2023-02-22T04:03:21.373Z,89.00
2023-02-22T04:08:30.576Z,88.83
2023-02-22T04:13:36.456Z,89.08
2023-02-22T04:18:42.550Z,89.10
2023-02-22T04:23:50.458Z,89.20
2023-02-22T04:28:57.018Z,89.12
2023-02-22T04:34:05.409Z,89.18
2023-02-22T04:39:17.371Z,89.08
2023-02-22T04:44:24.298Z,89.32
2023-02-22T04:49:34.518Z,89.69
2023-02-22T04:54:43.423Z,89.49
2023-02-22T04:59:51.621Z,89.06
2023-02-22T05:05:02.921Z,88.78
2023-02-22T05:10:12.101Z,88.26
2023-02-22T05:15:20.524Z,88.06
2023-02-22T05:20:30.702Z,88.00
2023-02-22T05:25:38.992Z,88.71
2023-02-22T05:30:45.622Z,88.55
2023-02-22T05:35:52.288Z,88.47
2023-02-22T05:41:00.115Z,88.28
2023-02-22T05:46:07.713Z,88.74
2023-02-22T05:51:14.380Z,88.69
2023-02-22T05:56:27.037Z,88.98
2023-02-22T06:01:33.860Z,88.78
2023-02-22T06:06:40.443Z,88.98
2023-02-22T06:11:48.564Z,88.82
2023-02-22T06:16:56.105Z,88.79
2023-02-22T06:22:05.055Z,89.27
2023-02-22T06:27:12.947Z,88.73
2023-02-22T06:32:19.421Z,88.68
2023-02-22T06:37:25.914Z,88.46
2023-02-22T06:42:33.970Z,88.38
2023-02-22T06:47:43.697Z,88.32
2023-02-22T06:52:49.874Z,88.76
2023-02-22T06:57:58.294Z,88.95
2023-02-22T07:03:07.010Z,87.72
2023-02-22T07:08:14.420Z,87.65
2023-02-22T07:13:22.530Z,86.78
2023-02-22T07:18:30.014Z,85.67
2023-02-22T07:23:40.384Z,85.44
2023-02-22T07:28:48.494Z,85.77
2023-02-22T07:33:55.781Z,84.64
2023-02-22T07:39:02.097Z,83.43
2023-02-22T07:44:10.044Z,84.01
2023-02-22T07:49:16.472Z,82.42
2023-02-22T07:54:22.956Z,81.53
2023-02-22T07:59:31.030Z,81.48
2023-02-22T08:04:37.486Z,80.45
2023-02-22T08:09:43.740Z,79.74
2023-02-22T08:14:51.538Z,79.93
2023-02-22T08:19:57.896Z,78.95
2023-02-22T08:25:04.217Z,78.67
2023-02-22T08:30:16.429Z,77.97
2023-02-22T08:35:24.478Z,78.18
2023-02-22T08:40:33.557Z,77.27
2023-02-22T08:45:41.046Z,78.33
2023-02-22T08:50:47.335Z,78.67
2023-02-22T08:55:54.473Z,78.75
2023-02-22T09:01:02.502Z,79.33
2023-02-22T09:06:09.327Z,78.43
2023-02-22T09:11:16.412Z,78.11
2023-02-22T09:16:24.488Z,75.49
2023-02-22T09:21:31.944Z,75.75
2023-02-22T09:26:40.308Z,76.51
2023-02-22T09:31:48.140Z,74.89
2023-02-22T09:36:54.582Z,75.03
2023-02-22T09:42:11.038Z,74.68
2023-02-22T09:47:32.707Z,74.62
2023-02-22T09:52:49.275Z,74.78
2023-02-22T09:57:58.167Z,74.48
2023-02-22T10:03:21.216Z,73.82
2023-02-22T10:08:33.685Z,73.82
2023-02-22T10:13:53.607Z,73.59
2023-02-22T10:19:29.582Z,71.59
2023-02-22T10:24:48.034Z,71.94
2023-02-22T10:30:01.174Z,72.34
2023-02-22T10:35:22.669Z,71.43
2023-02-22T10:40:33.615Z,72.38
2023-02-22T10:45:40.206Z,72.86
2023-02-22T10:50:50.808Z,72.60
2023-02-22T10:56:15.196Z,72.48
2023-02-22T11:01:41.101Z,72.06
2023-02-22T11:06:51.950Z,72.12
2023-02-22T11:12:13.150Z,71.25
2023-02-22T11:17:32.937Z,69.42
2023-02-22T11:22:43.681Z,69.91
2023-02-22T11:27:50.562Z,70.31
2023-02-22T11:33:01.482Z,69.13
2023-02-22T11:38:21.405Z,68.85
2023-02-22T11:43:28.037Z,69.30
2023-02-22T11:48:39.793Z,68.05
2023-02-22T11:54:09.646Z,68.65
2023-02-22T11:59:32.328Z,65.57
2023-02-22T12:05:08.399Z,66.33
2023-02-22T12:10:28.591Z,67.52
2023-02-22T12:15:41.546Z,67.42
2023-02-22T12:20:55.585Z,67.30
2023-02-22T12:26:11.881Z,66.17
2023-02-22T12:31:25.633Z,66.27
2023-02-22T12:36:41.433Z,67.54
2023-02-22T12:41:53.328Z,67.00
2023-02-22T12:47:02.817Z,65.36
2023-02-22T12:52:22.340Z,65.58
2023-02-22T12:57:43.140Z,65.95
2023-02-22T13:02:59.205Z,65.36
2023-02-22T13:08:23.080Z,66.07
2023-02-22T13:13:43.251Z,65.45
2023-02-22T13:18:58.862Z,64.94
2023-02-22T13:24:13.862Z,65.49
2023-02-22T13:29:28.820Z,64.37
2023-02-22T13:35:12.589Z,63.96
2023-02-22T13:40:46.995Z,64.41
2023-02-22T13:46:39.389Z,64.21
2023-02-22T13:51:57.093Z,64.71
2023-02-22T13:57:04.820Z,64.26
2023-02-22T14:02:55.895Z,64.05
2023-02-22T14:08:02.649Z,64.01
2023-02-22T14:13:09.866Z,64.88
2023-02-22T14:18:21.185Z,65.27
2023-02-22T14:23:38.293Z,64.54
2023-02-22T14:28:57.463Z,65.24
2023-02-22T14:34:16.530Z,64.45
2023-02-22T14:39:33.119Z,64.83
2023-02-22T14:44:50.642Z,65.09
2023-02-22T14:50:06.900Z,63.77
2023-02-22T14:55:26.116Z,64.05
2023-02-22T15:00:42.950Z,63.07
2023-02-22T15:05:51.307Z,63.36
2023-02-22T15:10:59.200Z,63.40
2023-02-22T15:16:08.792Z,65.06
2023-02-22T15:21:18.938Z,63.38
2023-02-22T15:26:31.706Z,63.66
2023-02-22T15:31:44.391Z,64.31
2023-02-22T15:36:56.572Z,63.77
2023-02-22T15:42:09.713Z,63.95
2023-02-22T15:47:21.458Z,63.05
2023-02-22T15:52:30.001Z,63.89
2023-02-22T15:57:37.991Z,63.81
2023-02-22T16:02:45.091Z,63.58
2023-02-22T16:07:55.307Z,63.06
2023-02-22T16:13:22.176Z,63.38
2023-02-22T16:18:41.131Z,64.05
2023-02-22T16:24:01.358Z,63.77
2023-02-22T16:29:28.627Z,64.64
2023-02-22T16:34:35.374Z,64.42
2023-02-22T16:39:47.722Z,64.59
2023-02-22T16:44:55.033Z,65.09
2023-02-22T16:50:02.501Z,64.87
2023-02-22T16:55:17.167Z,65.50
2023-02-22T17:00:32.891Z,65.66
2023-02-22T17:05:40.924Z,66.35
2023-02-22T17:10:53.381Z,67.50
2023-02-22T17:16:02.170Z,69.19
2023-02-22T17:21:13.579Z,69.23
2023-02-22T17:26:22.742Z,68.81
2023-02-22T17:31:32.826Z,69.35
2023-02-22T17:36:40.641Z,70.04
2023-02-22T17:41:58.411Z,70.29
2023-02-22T17:47:06.576Z,70.81
2023-02-22T17:52:16.809Z,70.79
2023-02-22T17:57:27.684Z,70.65
2023-02-22T18:02:39.571Z,70.65
2023-02-22T18:07:48.215Z,70.59
2023-02-22T18:13:02.231Z,70.64
2023-02-22T18:18:12.708Z,70.79
2023-02-22T18:23:28.899Z,70.84
2023-02-22T18:28:43.440Z,71.26
2023-02-22T18:33:58.633Z,70.87
2023-02-22T18:39:13.046Z,70.91
2023-02-22T18:44:35.154Z,71.03
2023-02-22T18:49:44.668Z,70.88
2023-02-22T18:55:01.975Z,70.14
2023-02-22T19:00:29.202Z,70.13
2023-02-22T19:05:40.613Z,69.94
2023-02-22T19:10:53.254Z,69.53
2023-02-22T19:16:08.044Z,69.49
2023-02-22T19:21:19.515Z,69.75
2023-02-22T19:26:31.860Z,70.35
2023-02-22T19:37:36.960Z,69.89
2023-02-22T19:42:48.605Z,69.88
2023-02-22T19:47:59.084Z,69.61
2023-02-22T19:53:16.786Z,69.59
2023-02-22T19:58:26.408Z,69.06
2023-02-22T20:03:39.568Z,69.06
2023-02-22T20:08:52.058Z,69.56
2023-02-22T20:14:03.442Z,69.89
2023-02-22T20:19:12.148Z,69.78
2023-02-22T20:24:28.361Z,70.31
2023-02-22T20:29:43.720Z,70.50
2023-02-22T20:34:53.871Z,70.53
2023-02-22T20:40:08.948Z,71.41
2023-02-22T20:45:20.798Z,72.50
2023-02-22T20:50:34.151Z,72.56
2023-02-22T20:55:53.447Z,73.54
2023-02-22T21:01:12.523Z,73.08
2023-02-22T21:06:23.703Z,74.48
2023-02-22T21:11:39.321Z,75.20
2023-02-22T21:16:56.478Z,75.17
2023-02-22T21:22:13.716Z,75.23
2023-02-22T21:27:25.024Z,75.25
2023-02-22T21:32:36.227Z,74.81
2023-02-22T21:37:48.198Z,73.75
2023-02-22T21:42:59.185Z,73.51
2023-02-22T21:48:09.881Z,73.80
2023-02-22T21:53:18.989Z,74.64
2023-02-22T21:58:31.295Z,74.25
2023-02-22T22:03:38.566Z,74.53
2023-02-22T22:08:49.135Z,74.17
2023-02-22T22:14:05.700Z,74.08
2023-02-22T22:19:16.337Z,74.09
2023-02-22T22:24:29.812Z,74.92
2023-02-22T22:29:44.483Z,75.49
2023-02-22T22:34:57.424Z,76.01
2023-02-22T22:40:16.631Z,76.53
2023-02-22T22:45:28.357Z,76.11
2023-02-22T22:50:41.201Z,76.22
2023-02-22T22:55:50.798Z,75.91
2023-02-22T23:01:02.113Z,74.74
2023-02-22T23:06:10.706Z,74.96
2023-02-22T23:11:18.578Z,74.90
2023-02-22T23:16:27.348Z,75.39
2023-02-22T23:21:36.189Z,75.26
2023-02-22T23:26:42.885Z,74.71
2023-02-22T23:31:51.820Z,74.71
2023-02-22T23:36:58.019Z,73.94
2023-02-22T23:42:04.782Z,74.13
2023-02-22T23:47:12.968Z,73.40
2023-02-22T23:52:24.491Z,72.21
2023-02-22T23:57:33.183Z,72.16
